Frio — WDI7439 — position and weather

sailwx.info

Track history (hours):
 
Tides and Currents Weather Stations Pressure Air Temp Water Temp Dewpoint Dewpoint Depression Visibility Wind Speed Wind Dir Waves Ship Positions

Frio

Owner: Kirby Inland Marine LP, Houston, TX. More information available from US FCC via Universal Licensing System and Coast Guard Vessel Documentation Center.

Last reported at 2017-Dec-11 17:00 UTC. Time now 2017-Dec-14 00:29 UTC.
Position N 29°44' W 095°01'.

Length 117 m; draft 2.9 m.

Type: . MMSI: 367728740.

Date/timePositionNaut miles runAvg speedWind from/ knotsBaromVisibWave heightAir tempDewpointWater temp
2017-Dec-11 17:00N 29°44' W 095°01'1 1.7
2017-Dec-11 16:30N 29°44' W 095°02'4 1.2
2017-Dec-11 13:25N 29°47' W 095°04'2 3.6
2017-Dec-11 12:55N 29°45' W 095°04'2 5.5
2017-Dec-11 12:30N 29°44' W 095°02'1 1.4
2017-Dec-11 12:00N 29°44' W 095°01'0 0.2
2017-Dec-11 11:30N 29°44' W 095°01'0 0.3
2017-Dec-11 11:00N 29°44' W 095°01'0 0.0
2017-Dec-11 00:28N 29°44' W 095°01'0 0.6
2017-Dec-11 00:00N 29°44' W 095°01'0 0.0
2017-Dec-10 23:30N 29°44' W 095°01'0 0.0
2017-Dec-10 23:00N 29°44' W 095°01'0 0.0
2017-Dec-10 22:29N 29°44' W 095°01'0 0.0
2017-Dec-10 22:00N 29°44' W 095°01'0 0.2
2017-Dec-10 21:30N 29°44' W 095°01'0 0.0
2017-Dec-10 16:53N 29°44' W 095°01'1 2.0
2017-Dec-10 16:30N 29°43' W 095°01'0 1.0
2017-Dec-10 16:00N 29°42' W 095°01'2 3.2
2017-Dec-10 15:30N 29°42' W 094°59'2 4.7
2017-Dec-10 15:00N 29°40' W 094°58'3 5.5
2017-Dec-10 14:30N 29°37' W 094°57'3 5.6
2017-Dec-10 14:00N 29°35' W 094°56'74 3.6
2017-Dec-09 17:42N 30°04' W 093°37'1 4.2
2017-Dec-09 17:21N 30°04' W 093°35'2 3.9
2017-Dec-09 16:56N 30°04' W 093°33'2 4.1
2017-Dec-09 16:30N 30°04' W 093°31'2 4.2
2017-Dec-09 16:00N 30°04' W 093°29'2 4.1
2017-Dec-09 15:30N 30°04' W 093°27'2 4.1
2017-Dec-09 15:00N 30°04' W 093°24'2 4.1
2017-Dec-09 14:30N 30°04' W 093°22'2 3.4
2017-Dec-09 14:00N 30°05' W 093°20'2 4.3
2017-Dec-09 13:30N 30°06' W 093°19'1 2.8
2017-Dec-09 13:00N 30°05' W 093°17'1 2.8
2017-Dec-09 12:30N 30°04' W 093°16'1 1.6
2017-Dec-09 12:00N 30°04' W 093°16'0 0.2
2017-Dec-09 11:30N 30°03' W 093°16'0 0.0
2017-Dec-09 11:00N 30°03' W 093°16'0 0.0
2017-Dec-09 10:30N 30°03' W 093°16'0 0.1
2017-Dec-09 10:00N 30°03' W 093°16'1 1.4
2017-Dec-09 09:30N 30°03' W 093°16'2 3.7
2017-Dec-09 09:00N 30°02' W 093°14'2 3.6
2017-Dec-09 08:30N 29°60' W 093°13'2 4.2
2017-Dec-09 08:00N 29°58' W 093°12'2 4.0
2017-Dec-09 07:30N 29°57' W 093°10'2 3.4
2017-Dec-09 07:00N 29°56' W 093°08'2 4.1
2017-Dec-09 06:30N 29°56' W 093°06'2 3.7
2017-Dec-09 05:59N 29°56' W 093°04'37 2.4
2017-Dec-08 14:25N 29°51' W 092°22'2 3.9
2017-Dec-08 14:00N 29°51' W 092°20'2 4.0
2017-Dec-08 13:30N 29°50' W 092°18'2 4.1
2017-Dec-08 13:00N 29°49' W 092°16'2 4.5
2017-Dec-08 12:30N 29°48' W 092°14'1 2.8
2017-Dec-08 12:00N 29°47' W 092°12'1 2.8
2017-Dec-08 11:30N 29°47' W 092°11'1 2.8
2017-Dec-08 11:00N 29°47' W 092°09'2 3.9
2017-Dec-08 10:30N 29°47' W 092°07'2 4.0
2017-Dec-08 10:00N 29°48' W 092°05'2 3.7
2017-Dec-08 09:30N 29°49' W 092°03'2 3.7
2017-Dec-08 09:00N 29°49' W 092°01'58 4.0
2017-Dec-07 18:22N 29°34' W 090°56'2 4.8
2017-Dec-07 17:59N 29°33' W 090°54'3 4.5
2017-Dec-07 17:23N 29°32' W 090°51'2 4.7
2017-Dec-07 17:00N 29°32' W 090°49'2 4.5
2017-Dec-07 16:30N 29°32' W 090°47'2 3.8
2017-Dec-07 16:00N 29°33' W 090°45'2 3.5
2017-Dec-07 15:30N 29°34' W 090°43'2 3.6
2017-Dec-07 15:00N 29°36' W 090°43'1 2.6
2017-Dec-07 14:30N 29°37' W 090°41'1 1.9
2017-Dec-07 14:00N 29°36' W 090°40'0 0.1
2017-Dec-07 13:30N 29°36' W 090°40'1 1.4
2017-Dec-07 13:00N 29°36' W 090°40'1 2.3
2017-Dec-07 12:30N 29°35' W 090°38'2 3.5
2017-Dec-07 12:00N 29°35' W 090°37'2 3.5
2017-Dec-07 11:30N 29°34' W 090°35'2 3.8
2017-Dec-07 11:00N 29°34' W 090°33'2 4.1
2017-Dec-07 10:30N 29°34' W 090°30'  
2017-Dec-04 03:17N 29°56' W 090°12'  
Track history (hours):
 
Tides and Currents Weather Stations Pressure Air Temp Water Temp Dewpoint Dewpoint Depression Visibility Wind Speed Wind Dir Waves Ship Positions

Frio

Owner: Kirby Inland Marine LP, Houston, TX. More information available from US FCC via Universal Licensing System and Coast Guard Vessel Documentation Center.

Last reported at 2017-Dec-11 17:00 UTC. Time now 2017-Dec-14 00:29 UTC.
Position N 29°44' W 095°01'.

Length 117 m; draft 2.9 m.

Type: . MMSI: 367728740.

Date/timePositionNaut miles runAvg speedWind from/ knotsBaromVisibWave heightAir tempDewpointWater temp
2017-Dec-11 17:00N 29°44' W 095°01'1 1.7
2017-Dec-11 16:30N 29°44' W 095°02'4 1.2
2017-Dec-11 13:25N 29°47' W 095°04'2 3.6
2017-Dec-11 12:55N 29°45' W 095°04'2 5.5
2017-Dec-11 12:30N 29°44' W 095°02'1 1.4
2017-Dec-11 12:00N 29°44' W 095°01'0 0.2
2017-Dec-11 11:30N 29°44' W 095°01'0 0.3
2017-Dec-11 11:00N 29°44' W 095°01'0 0.0
2017-Dec-11 00:28N 29°44' W 095°01'0 0.6
2017-Dec-11 00:00N 29°44' W 095°01'0 0.0
2017-Dec-10 23:30N 29°44' W 095°01'0 0.0
2017-Dec-10 23:00N 29°44' W 095°01'0 0.0
2017-Dec-10 22:29N 29°44' W 095°01'0 0.0
2017-Dec-10 22:00N 29°44' W 095°01'0 0.2
2017-Dec-10 21:30N 29°44' W 095°01'0 0.0
2017-Dec-10 16:53N 29°44' W 095°01'1 2.0
2017-Dec-10 16:30N 29°43' W 095°01'0 1.0
2017-Dec-10 16:00N 29°42' W 095°01'2 3.2
2017-Dec-10 15:30N 29°42' W 094°59'2 4.7
2017-Dec-10 15:00N 29°40' W 094°58'3 5.5
2017-Dec-10 14:30N 29°37' W 094°57'3 5.6
2017-Dec-10 14:00N 29°35' W 094°56'74 3.6
2017-Dec-09 17:42N 30°04' W 093°37'1 4.2
2017-Dec-09 17:21N 30°04' W 093°35'2 3.9
2017-Dec-09 16:56N 30°04' W 093°33'2 4.1
2017-Dec-09 16:30N 30°04' W 093°31'2 4.2
2017-Dec-09 16:00N 30°04' W 093°29'2 4.1
2017-Dec-09 15:30N 30°04' W 093°27'2 4.1
2017-Dec-09 15:00N 30°04' W 093°24'2 4.1
2017-Dec-09 14:30N 30°04' W 093°22'2 3.4
2017-Dec-09 14:00N 30°05' W 093°20'2 4.3
2017-Dec-09 13:30N 30°06' W 093°19'1 2.8
2017-Dec-09 13:00N 30°05' W 093°17'1 2.8
2017-Dec-09 12:30N 30°04' W 093°16'1 1.6
2017-Dec-09 12:00N 30°04' W 093°16'0 0.2
2017-Dec-09 11:30N 30°03' W 093°16'0 0.0
2017-Dec-09 11:00N 30°03' W 093°16'0 0.0
2017-Dec-09 10:30N 30°03' W 093°16'0 0.1
2017-Dec-09 10:00N 30°03' W 093°16'1 1.4
2017-Dec-09 09:30N 30°03' W 093°16'2 3.7
2017-Dec-09 09:00N 30°02' W 093°14'2 3.6
2017-Dec-09 08:30N 29°60' W 093°13'2 4.2
2017-Dec-09 08:00N 29°58' W 093°12'2 4.0
2017-Dec-09 07:30N 29°57' W 093°10'2 3.4
2017-Dec-09 07:00N 29°56' W 093°08'2 4.1
2017-Dec-09 06:30N 29°56' W 093°06'2 3.7
2017-Dec-09 05:59N 29°56' W 093°04'37 2.4
2017-Dec-08 14:25N 29°51' W 092°22'2 3.9
2017-Dec-08 14:00N 29°51' W 092°20'2 4.0
2017-Dec-08 13:30N 29°50' W 092°18'2 4.1
2017-Dec-08 13:00N 29°49' W 092°16'2 4.5
2017-Dec-08 12:30N 29°48' W 092°14'1 2.8
2017-Dec-08 12:00N 29°47' W 092°12'1 2.8
2017-Dec-08 11:30N 29°47' W 092°11'1 2.8
2017-Dec-08 11:00N 29°47' W 092°09'2 3.9
2017-Dec-08 10:30N 29°47' W 092°07'2 4.0
2017-Dec-08 10:00N 29°48' W 092°05'2 3.7
2017-Dec-08 09:30N 29°49' W 092°03'2 3.7
2017-Dec-08 09:00N 29°49' W 092°01'58 4.0
2017-Dec-07 18:22N 29°34' W 090°56'2 4.8
2017-Dec-07 17:59N 29°33' W 090°54'3 4.5
2017-Dec-07 17:23N 29°32' W 090°51'2 4.7
2017-Dec-07 17:00N 29°32' W 090°49'2 4.5
2017-Dec-07 16:30N 29°32' W 090°47'2 3.8
2017-Dec-07 16:00N 29°33' W 090°45'2 3.5
2017-Dec-07 15:30N 29°34' W 090°43'2 3.6
2017-Dec-07 15:00N 29°36' W 090°43'1 2.6
2017-Dec-07 14:30N 29°37' W 090°41'1 1.9
2017-Dec-07 14:00N 29°36' W 090°40'0 0.1
2017-Dec-07 13:30N 29°36' W 090°40'1 1.4
2017-Dec-07 13:00N 29°36' W 090°40'1 2.3
2017-Dec-07 12:30N 29°35' W 090°38'2 3.5
2017-Dec-07 12:00N 29°35' W 090°37'2 3.5
2017-Dec-07 11:30N 29°34' W 090°35'2 3.8
2017-Dec-07 11:00N 29°34' W 090°33'2 4.1
2017-Dec-07 10:30N 29°34' W 090°30'  
2017-Dec-04 03:17N 29°56' W 090°12'  

Dump ship's entire track history